Latest Weather Observations for Rowley Shoals

IDW60801

Issued at 4:05 pm WST Friday 31 October 2014 (issued every 30 minutes, with the page automatically refreshed every 10 minutes)

About weather observations | Map of weather stations | Latest weather observations for WA | Other Formats
Station Details ID: 200713 Name: ROWLEY SHOALS Lat: -17.52 Lon: 118.95 Height: 0.0 m
Data from the previous 72 hours. | See also: Recent months for locations in Western Australia
Date/Time
WST
Temp
°C
App
Temp
°C
Dew
Point
Rel
Hum
%
Delta-T
°C
Wind Press
QNH
hPa
Press
MSL
hPa
Rain
since 9 am
mm
Dir
 
Spd
km/h
Gust
km/h
Spd
kts
Gust
kts
31/04:00pm - - - - - SW 28 32 15 17 1007.4 - -
31/03:30pm - - - - - SW 26 30 14 16 1007.3 - -
31/03:00pm - - - - - SW 26 32 14 17 1007.5 1007.5 -
31/02:30pm - - - - - SW 30 35 16 19 1007.5 - -
31/02:00pm - - - - - SW 30 35 16 19 1007.5 1007.5 -
31/01:30pm - - - - - SW 30 33 16 18 1007.8 - -
31/01:00pm - - - - - SW 28 35 15 19 1008.0 1007.9 -
31/12:30pm - - - - - SSW 30 35 16 19 1008.3 - -
31/12:00pm - - - - - SW 32 35 17 19 1008.6 1008.5 -
31/11:30am - - - - - SW 32 37 17 20 1008.9 - -
31/11:00am - - - - - SW 33 39 18 21 1009.1 1009.0 -
31/10:30am - - - - - SW 35 41 19 22 1009.3 - -
31/10:00am - - - - - SW 32 39 17 21 1009.5 1009.5 -
31/09:30am - - - - - SW 30 33 16 18 1009.7 - -
31/09:00am - - - - - SW 32 35 17 19 1009.7 1009.7 -
31/08:30am - - - - - SW 32 39 17 21 1009.7 - -
31/08:00am - - - - - SW 33 41 18 22 1009.5 1009.6 -
31/07:30am - - - - - SW 32 39 17 21 1009.3 - -
31/07:00am - - - - - SW 32 39 17 21 1009.0 1009.1 -
31/06:30am - - - - - SW 32 39 17 21 1008.7 - -
31/06:00am - - - - - SW 32 37 17 20 1008.4 1008.5 -
31/05:30am - - - - - SW 32 37 17 20 1008.1 - -
31/05:00am - - - - - WSW 33 37 18 20 1007.8 1007.8 -
31/04:30am - - - - - SW 30 39 16 21 1007.6 - -
31/04:15am - - - - - WSW 28 46 15 25 1007.2 - -
31/04:00am - - - - - SW 26 44 14 24 1007.4 1007.7 -
31/03:30am - - - - - WSW 30 35 16 19 1007.2 - -
31/03:00am - - - - - WSW 30 35 16 19 1007.1 1007.1 -
31/02:30am - - - - - WSW 32 37 17 20 1007.1 - -
31/02:00am - - - - - WSW 32 37 17 20 1007.1 1007.0 -
31/01:30am - - - - - WSW 28 32 15 17 1007.4 - -
31/01:00am - - - - - WSW 30 33 16 18 1007.5 1007.5 -
31/12:30am - - - - - WSW 28 32 15 17 1007.8 - -
31/12:00am - - - - - WSW 28 32 15 17 1008.2 1008.1 -
 
Date/Time
WST
Temp
°C
App
Temp
°C
Dew
Point
Rel
Hum
%
Delta-T
°C
Wind Press
QNH
hPa
Press
MSL
hPa
Rain
since 9 am
mm
Dir
 
Spd
km/h
Gust
km/h
Spd
kts
Gust
kts
30/11:30pm - - - - - WSW 28 32 15 17 1008.4 - -
30/11:00pm - - - - - WSW 28 32 15 17 1008.9 1008.8 -
30/10:30pm - - - - - WSW 28 32 15 17 1009.2 - -
30/10:00pm - - - - - WSW 28 32 15 17 1009.4 1009.3 -
30/09:30pm - - - - - W 26 30 14 16 1009.5 - -
30/09:00pm - - - - - W 26 28 14 15 1009.3 1009.3 -
30/08:30pm - - - - - W 26 28 14 15 1009.3 - -
30/08:00pm - - - - - W 26 28 14 15 1009.2 1009.2 -
30/07:30pm - - - - - W 24 28 13 15 1009.0 - -
30/07:00pm - - - - - W 24 28 13 15 1008.6 1008.8 -
30/06:30pm - - - - - WSW 24 28 13 15 1008.3 - -
30/06:00pm - - - - - WSW 24 28 13 15 1008.1 1008.1 -
30/05:30pm - - - - - WSW 24 28 13 15 1007.9 - -
30/05:00pm - - - - - WSW 24 28 13 15 1007.8 1007.8 -
30/04:30pm - - - - - WSW 22 26 12 14 1007.7 - -
30/04:00pm - - - - - WSW 24 26 13 14 1007.5 1007.6 -
30/03:30pm - - - - - WSW 24 28 13 15 1007.6 - -
30/03:00pm - - - - - WSW 22 26 12 14 1007.8 1007.8 -
30/02:30pm - - - - - WSW 24 26 13 14 1008.0 - -
30/02:00pm - - - - - WSW 22 26 12 14 1008.2 1008.2 -
30/01:30pm - - - - - WSW 22 26 12 14 1008.5 - -
30/01:00pm - - - - - WSW 22 26 12 14 1008.7 1008.6 -
30/12:30pm - - - - - WSW 24 26 13 14 1009.0 - -
30/12:00pm - - - - - WSW 24 26 13 14 1009.3 1009.3 -
30/11:30am - - - - - SW 24 26 13 14 1009.5 - -
30/11:00am - - - - - SW 24 28 13 15 1009.7 1009.7 -
30/10:30am - - - - - WSW 24 28 13 15 1009.9 - -
30/10:00am - - - - - WSW 24 28 13 15 1010.1 1010.1 -
30/09:30am - - - - - WSW 22 26 12 14 1010.4 - -
30/09:00am - - - - - WSW 24 28 13 15 1010.5 1010.5 -
30/08:30am - - - - - SW 26 30 14 16 1010.6 - -
30/08:00am - - - - - SW 26 30 14 16 1010.5 1010.5 -
30/07:30am - - - - - SW 24 28 13 15 1010.4 - -
30/07:00am - - - - - SW 24 28 13 15 1010.3 1010.3 -
30/06:30am - - - - - SW 24 28 13 15 1010.0 - -
30/06:00am - - - - - SW 24 28 13 15 1009.7 1009.8 -
30/05:30am - - - - - SW 24 28 13 15 1009.6 - -
30/05:00am - - - - - WSW 20 22 11 12 1009.5 1009.5 -
30/04:30am - - - - - WSW 24 26 13 14 1009.3 - -
30/04:00am - - - - - WSW 22 26 12 14 1009.4 1009.4 -
30/03:30am - - - - - WSW 20 24 11 13 1009.2 - -
30/03:00am - - - - - WSW 20 24 11 13 1009.1 1009.2 -
30/02:30am - - - - - W 20 24 11 13 1009.1 - -
30/02:00am - - - - - W 20 24 11 13 1009.4 1009.3 -
30/01:30am - - - - - W 20 22 11 12 1009.7 - -
30/01:00am - - - - - W 20 24 11 13 1009.9 1009.9 -
30/12:30am - - - - - W 20 24 11 13 1010.2 - -
30/12:00am - - - - - W 19 22 10 12 1010.5 1010.4 -
 
Date/Time
WST
Temp
°C
App
Temp
°C
Dew
Point
Rel
Hum
%
Delta-T
°C
Wind Press
QNH
hPa
Press
MSL
hPa
Rain
since 9 am
mm
Dir
 
Spd
km/h
Gust
km/h
Spd
kts
Gust
kts
29/11:30pm - - - - - WNW 20 24 11 13 1010.6 - -
29/11:00pm - - - - - W 20 22 11 12 1010.9 1010.8 -
29/10:30pm - - - - - W 22 28 12 15 1010.9 - -
29/10:00pm - - - - - W 17 19 9 10 1011.5 1011.4 -
29/09:30pm - - - - - W 15 17 8 9 1011.5 - -
29/09:00pm - - - - - W 17 20 9 11 1011.5 1011.5 -
29/08:30pm - - - - - W 15 17 8 9 1011.6 - -
29/08:00pm - - - - - W 17 17 9 9 1011.4 1011.4 -
29/07:30pm - - - - - W 13 15 7 8 1011.2 - -
29/07:00pm - - - - - W 13 15 7 8 1011.0 1011.0 -
29/06:30pm - - - - - W 15 15 8 8 1010.8 - -
29/06:00pm - - - - - W 13 17 7 9 1010.7 1010.7 -
29/05:30pm - - - - - W 15 17 8 9 1010.4 - -
29/05:00pm - - - - - WSW 15 19 8 10 1010.2 1010.2 -
29/04:30pm - - - - - WSW 17 19 9 10 1010.1 - -
29/04:00pm - - - - - WSW 20 22 11 12 1010.4 1010.2 -
29/03:30pm - - - - - W 19 20 10 11 1010.2 - -
29/03:00pm - - - - - W 17 20 9 11 1010.4 1010.4 -
29/02:30pm - - - - - NW 13 15 7 8 1010.4 - -
29/02:00pm - - - - - NW 13 17 7 9 1010.5 1010.4 -
29/01:30pm - - - - - NNW 13 15 7 8 1010.7 - -
29/01:00pm - - - - - NNW 11 15 6 8 1011.0 1010.9 -
29/12:30pm - - - - - NNW 11 13 6 7 1011.3 - -
29/12:00pm - - - - - NW 9 11 5 6 1011.5 1011.5 -
29/11:30am - - - - - WNW 7 9 4 5 1011.8 - -
29/11:00am - - - - - NW 7 11 4 6 1012.1 1012.0 -
29/10:30am - - - - - W 9 11 5 6 1012.1 - -
29/10:00am - - - - - WNW 7 9 4 5 1012.4 1012.3 -
29/09:30am - - - - - ESE 4 7 2 4 1012.8 - -
29/09:00am - - - - - S 2 7 1 4 1012.9 1012.8 -
29/08:30am - - - - - S 9 13 5 7 1012.8 - -
29/08:00am - - - - - S 11 15 6 8 1012.8 1012.7 -
29/07:30am - - - - - SSW 17 19 9 10 1012.4 - -
29/07:00am - - - - - SW 19 24 10 13 1012.0 1012.0 -
29/06:30am - - - - - SW 26 30 14 16 1011.9 - -
29/06:00am - - - - - SSW 30 33 16 18 1011.5 1011.6 -
29/05:30am - - - - - WSW 28 33 15 18 1010.9 - -
29/05:00am - - - - - WSW 30 33 16 18 1010.7 1010.7 -
29/04:30am - - - - - W 30 35 16 19 1010.5 - -
29/04:00am - - - - - W 32 33 17 18 1010.3 1010.3 -
29/03:30am - - - - - W 26 32 14 17 1010.2 - -
29/03:00am - - - - - W 26 30 14 16 1010.0 1010.0 -
29/02:30am - - - - - WNW 26 30 14 16 1010.1 - -
29/02:00am - - - - - WNW 22 26 12 14 1010.1 1010.1 -
29/01:30am - - - - - WNW 22 28 12 15 1010.1 - -
29/01:00am - - - - - WNW 24 28 13 15 1010.2 1010.2 -
29/12:30am - - - - - WNW 22 28 12 15 1010.3 - -
29/12:00am - - - - - WNW 22 26 12 14 1010.5 1010.4 -
 
Date/Time
WST
Temp
°C
App
Temp
°C
Dew
Point
Rel
Hum
%
Delta-T
°C
Wind Press
QNH
hPa
Press
MSL
hPa
Rain
since 9 am
mm
Dir
 
Spd
km/h
Gust
km/h
Spd
kts
Gust
kts
28/11:30pm - - - - - WNW 22 26 12 14 1010.7 - -
28/11:00pm - - - - - WNW 22 28 12 15 1010.9 1010.8 -
28/10:30pm - - - - - NW 22 26 12 14 1011.0 - -
28/10:00pm - - - - - NNW 22 26 12 14 1011.0 1011.0 -
28/09:30pm - - - - - NNW 22 24 12 13 1011.0 - -
28/09:00pm - - - - - NNW 20 24 11 13 1011.0 1011.1 -
28/08:30pm - - - - - NNW 20 24 11 13 1011.1 - -
28/08:00pm - - - - - NNW 19 22 10 12 1010.8 1010.8 -
28/07:30pm - - - - - NNW 19 22 10 12 1010.5 - -
28/07:00pm - - - - - NNW 19 20 10 11 1010.2 1010.3 -
28/06:30pm - - - - - NNW 19 20 10 11 1010.1 - -
28/06:00pm - - - - - NNW 19 20 10 11 1010.0 1010.0 -
28/05:30pm - - - - - NNW 17 20 9 11 1009.6 - -
28/05:00pm - - - - - NNW 19 20 10 11 1009.5 1009.6 -
28/04:30pm - - - - - NW 15 17 8 9 1009.2 - -

Other Formats:

Comma delimited format used in spreadsheet applications
http://www.bom.gov.au/fwo/IDW60801/IDW60801.94207.axf

JavaScript Object Notation format (JSON) in row-major order
http://www.bom.gov.au/fwo/IDW60801/IDW60801.94207.json